Pagrindinis puslapis
METAR-TAF:

METAR-TAF

Oro uostai :

Tokumenas, Panama

platuma: 09-03N, ilguma: 079-22W, Aukštis: 45 m

Dabartinis oras

Ataskaita buvo paskelbta 53 minutes, ne 00:00 UTC
Vėjas 13 kt iš Šiaurės/Šiaurės Vakarų
Temperatūra 28°C
Drėgmė 58%
Slėgis 1007 hPa
Matomumas 10 km arba daugiau
Mažai debesys ne aukštis 2000 ft

METAR: MPTO 290000Z 34013KT 9999 FEW020 28/19 Q1007 NOSIG

Laikas: 19:53 (00:53 UTC)

Prognozė

Ataskaita buvo paskelbta 1 valandą ir 53 minutes, ne 23:00 UTC
Prognozė galioja nuo 28 metu 00 UTC su 30 metu 06 UTC
Vėjas 10 kt iš Šiaurės/Šiaurės Vakarų
Matomumas 10 km arba daugiau
Mažai debesys ne aukštis 2000 ft
Laikinai
nuo 29 metu 07 UTC su 29 metu 09 UTC
Vėjas 2 kt nuo kintamojo kryptimis
Laikinai
nuo 29 metu 16 UTC su 29 metu 18 UTC
Vėjas 12 kt iš Šiaurės

TAF: MPTO 282300Z 2800/3006 33010KT 9999 FEW020 TEMPO 2907/2909 VRB02KT TEMPO 2916/2918 01012KT

Orai ataskaitas ir orų prognozės (METAR, TAF).

turimą stotys yra geltonos ir raudonos taškus žemėlapyje.

Perkelti pele per norėdami pamatyti stoties vardą.

Tada spustelėkite, norėdami matyti oro stebėjimo ir prognozės.

Norėdami pakeisti žemėlapį: spustelėkite ant žalios mygtukų su juodo kryžiaus žemyn,; žalią mygtuką su brūkšneliu, jei norite nutolinti; arba žalių rodyklių gretimoms žemėlapius.


METAR-TAF: